Bremervoerde, Germany

2:30 PM CEST on August 29, 2014 (GMT +0200)
INIEDERS171 | Change Station
CLOSE
Current Station
Personal Weather Station
Location: Armstorf/ Dornsode, NIEDERSACHSEN
Elevation: 20 ft
Nearby Weather Stations

Elev 20 ft 53.58 °N, 9.04 °E | Updated 3 minutes ago

Scattered Clouds
Scattered Clouds
71.2 °F
Feels Like 75 °F
N
7.0
Wind Variable Wind from NW
Gusts 13.0 mph

Today
High -- | Low -- °F
--% Chance of Precip.
Yesterday
High -- | Low -- °F
Precip. -- in
6:26 AM 8:20 PM
Waxing Crescent, 14% visible
Pressure 29.92 in
Visibility 6.2 miles
Clouds Scattered Clouds 4500 ft
Heat Index 75 °F
Dew Point 60 °F
Humidity 67%
Rainfall 0.05 in
Snow Depth Not available.
UV 5 out of 12
Pollen Not available.
Air Quality Not available.
Flu Activity Not available.
METAR EDHI 291220Z 25015KT 9999 SCT045 20/12 Q1013

More Conditions Fewer Conditions

Pressure 29.92 in
Visibility 6.2 miles
Clouds Scattered Clouds 4500 ft
Heat Index 75 °F
Dew Point 60 °F
Humidity 67%
Rainfall 0.05 in
Snow Depth Not available.
UV 5 out of 12
Pollen Not available.
Air Quality Not available.
Flu Activity Not available.
METAR EDHI 291220Z 25015KT 9999 SCT045 20/12 Q1013

More Conditions Fewer Conditions

10-Day Weather Forecast

Almanac

Astronomy

Aug. 29, 2014 Rise Set
Actual Time 6:26 AM CEST 8:20 PM CEST
Civil Twilight 5:49 AM CEST 8:57 PM CEST
Nautical Twilight 5:03 AM CEST 9:43 PM CEST
Astronomical Twilight 4:09 AM CEST 10:36 PM CEST
Moon 10:37 AM CEST 9:29 PM CEST
Length of Visible Light 15h 07m
Length of Day
13h 53m
Tomorrow will be 4m 6s shorter.
Waxing Crescent, 14% of the Moon is Illuminated
Today
Waxing Crescent
Sep 2
First Quarter
Sep 8
Full
Sep 15
Last Quarter
Sep 24
New

Yesterday's Extremes

Country Highs Country Lows

Community

WunderPhotos

Upload Photos

1,748,219 photos uploaded!

Nearby

Snow Depth

Not available.

Earthquake Activity

City Distance Mag. Time & Date
No recent earthquake activity has been reported nearby.
Minimum magnitude displayed is 2.5.

Coastal Water Temperatures

Place Temperature
No Stations Reporting

Nearby Weather Stations